sensor_id;sensor_type;location;lat;lon;timestamp;P1;durP1;ratioP1;P2;durP2;ratioP2
3953;SDS011;1991;48.682;9.030;2022-07-29T00:00:20;5.80;;;4.57;;
3953;SDS011;1991;48.682;9.030;2022-07-29T00:02:46;6.38;;;4.72;;
3953;SDS011;1991;48.682;9.030;2022-07-29T00:05:12;7.30;;;4.50;;
3953;SDS011;1991;48.682;9.030;2022-07-29T00:07:38;5.15;;;4.75;;
3953;SDS011;1991;48.682;9.030;2022-07-29T00:10:05;5.18;;;4.60;;
3953;SDS011;1991;48.682;9.030;2022-07-29T00:12:31;7.32;;;4.78;;
3953;SDS011;1991;48.682;9.030;2022-07-29T00:14:56;7.00;;;4.93;;
3953;SDS011;1991;48.682;9.030;2022-07-29T00:17:23;7.28;;;5.22;;
3953;SDS011;1991;48.682;9.030;2022-07-29T00:19:49;5.97;;;4.78;;
3953;SDS011;1991;48.682;9.030;2022-07-29T00:22:15;4.85;;;4.40;;
3953;SDS011;1991;48.682;9.030;2022-07-29T00:24:41;7.90;;;4.78;;
3953;SDS011;1991;48.682;9.030;2022-07-29T00:27:06;6.03;;;4.75;;
3953;SDS011;1991;48.682;9.030;2022-07-29T00:29:32;6.65;;;5.32;;
3953;SDS011;1991;48.682;9.030;2022-07-29T00:31:57;5.47;;;4.97;;
3953;SDS011;1991;48.682;9.030;2022-07-29T00:34:23;5.70;;;4.75;;
3953;SDS011;1991;48.682;9.030;2022-07-29T00:37:07;7.55;;;4.90;;
3953;SDS011;1991;48.682;9.030;2022-07-29T00:39:32;5.65;;;4.68;;
3953;SDS011;1991;48.682;9.030;2022-07-29T00:41:58;6.75;;;4.50;;
3953;SDS011;1991;48.682;9.030;2022-07-29T00:44:26;7.88;;;4.22;;
3953;SDS011;1991;48.682;9.030;2022-07-29T00:46:52;4.53;;;4.00;;
3953;SDS011;1991;48.682;9.030;2022-07-29T00:49:17;5.40;;;3.97;;
3953;SDS011;1991;48.682;9.030;2022-07-29T00:51:43;5.45;;;3.88;;
3953;SDS011;1991;48.682;9.030;2022-07-29T00:54:09;4.10;;;3.80;;
3953;SDS011;1991;48.682;9.030;2022-07-29T00:56:35;4.30;;;3.90;;
3953;SDS011;1991;48.682;9.030;2022-07-29T00:59:00;7.18;;;4.00;;
3953;SDS011;1991;48.682;9.030;2022-07-29T01:01:26;4.43;;;4.00;;
3953;SDS011;1991;48.682;9.030;2022-07-29T01:03:53;6.03;;;4.00;;
3953;SDS011;1991;48.682;9.030;2022-07-29T01:06:19;5.80;;;3.70;;
3953;SDS011;1991;48.682;9.030;2022-07-29T01:08:45;3.80;;;3.20;;
3953;SDS011;1991;48.682;9.030;2022-07-29T01:11:13;3.92;;;3.53;;
3953;SDS011;1991;48.682;9.030;2022-07-29T01:13:41;3.47;;;3.17;;
3953;SDS011;1991;48.682;9.030;2022-07-29T01:22:05;4.15;;;3.30;;
3953;SDS011;1991;48.682;9.030;2022-07-29T01:27:54;4.07;;;3.45;;
3953;SDS011;1991;48.682;9.030;2022-07-29T01:30:34;4.13;;;3.58;;
3953;SDS011;1991;48.682;9.030;2022-07-29T01:33:03;4.10;;;3.50;;
3953;SDS011;1991;48.682;9.030;2022-07-29T01:35:36;3.80;;;3.50;;
3953;SDS011;1991;48.682;9.030;2022-07-29T01:38:17;5.07;;;3.13;;
3953;SDS011;1991;48.682;9.030;2022-07-29T01:40:49;5.20;;;4.40;;
3953;SDS011;1991;48.682;9.030;2022-07-29T01:43:20;4.50;;;3.45;;
3953;SDS011;1991;48.682;9.030;2022-07-29T01:45:53;4.25;;;3.65;;
3953;SDS011;1991;48.682;9.030;2022-07-29T01:48:34;5.68;;;3.80;;
3953;SDS011;1991;48.682;9.030;2022-07-29T01:51:10;4.25;;;3.95;;
3953;SDS011;1991;48.682;9.030;2022-07-29T01:53:38;4.20;;;3.80;;
3953;SDS011;1991;48.682;9.030;2022-07-29T01:56:11;4.60;;;3.58;;
3953;SDS011;1991;48.682;9.030;2022-07-29T01:58:38;5.05;;;3.33;;
3953;SDS011;1991;48.682;9.030;2022-07-29T02:01:06;3.17;;;2.97;;
3953;SDS011;1991;48.682;9.030;2022-07-29T02:03:34;4.82;;;3.47;;
3953;SDS011;1991;48.682;9.030;2022-07-29T02:06:01;4.53;;;3.15;;
3953;SDS011;1991;48.682;9.030;2022-07-29T02:08:29;4.43;;;3.58;;
3953;SDS011;1991;48.682;9.030;2022-07-29T02:10:57;3.88;;;3.58;;
3953;SDS011;1991;48.682;9.030;2022-07-29T02:13:24;3.67;;;3.03;;
3953;SDS011;1991;48.682;9.030;2022-07-29T02:15:52;3.20;;;2.90;;
3953;SDS011;1991;48.682;9.030;2022-07-29T02:18:19;4.07;;;3.40;;
3953;SDS011;1991;48.682;9.030;2022-07-29T02:20:48;4.78;;;3.53;;
3953;SDS011;1991;48.682;9.030;2022-07-29T02:23:18;3.58;;;3.33;;
3953;SDS011;1991;48.682;9.030;2022-07-29T02:25:50;5.22;;;3.60;;
3953;SDS011;1991;48.682;9.030;2022-07-29T02:28:18;3.97;;;3.10;;
3953;SDS011;1991;48.682;9.030;2022-07-29T02:30:45;3.53;;;3.22;;
3953;SDS011;1991;48.682;9.030;2022-07-29T02:33:13;3.47;;;3.17;;
3953;SDS011;1991;48.682;9.030;2022-07-29T02:35:40;4.22;;;3.80;;
3953;SDS011;1991;48.682;9.030;2022-07-29T02:38:09;3.60;;;3.30;;
3953;SDS011;1991;48.682;9.030;2022-07-29T02:40:56;3.50;;;3.20;;
3953;SDS011;1991;48.682;9.030;2022-07-29T02:43:22;4.65;;;2.80;;
3953;SDS011;1991;48.682;9.030;2022-07-29T02:45:51;3.17;;;2.88;;
3953;SDS011;1991;48.682;9.030;2022-07-29T02:48:20;3.97;;;3.10;;
3953;SDS011;1991;48.682;9.030;2022-07-29T02:50:54;3.25;;;2.95;;
3953;SDS011;1991;48.682;9.030;2022-07-29T02:53:26;4.57;;;3.45;;
3953;SDS011;1991;48.682;9.030;2022-07-29T02:56:01;3.38;;;3.08;;
3953;SDS011;1991;48.682;9.030;2022-07-29T02:58:39;3.55;;;3.25;;
3953;SDS011;1991;48.682;9.030;2022-07-29T03:01:08;3.58;;;3.28;;
3953;SDS011;1991;48.682;9.030;2022-07-29T03:03:38;4.95;;;3.70;;
3953;SDS011;1991;48.682;9.030;2022-07-29T03:06:07;3.95;;;3.53;;
3953;SDS011;1991;48.682;9.030;2022-07-29T03:08:33;3.83;;;3.42;;
3953;SDS011;1991;48.682;9.030;2022-07-29T03:10:59;4.13;;;3.28;;
3953;SDS011;1991;48.682;9.030;2022-07-29T03:13:26;4.38;;;3.45;;
3953;SDS011;1991;48.682;9.030;2022-07-29T03:15:54;4.95;;;3.60;;
3953;SDS011;1991;48.682;9.030;2022-07-29T03:18:20;4.75;;;4.38;;
3953;SDS011;1991;48.682;9.030;2022-07-29T03:20:46;5.45;;;4.25;;
3953;SDS011;1991;48.682;9.030;2022-07-29T03:23:12;5.13;;;4.05;;
3953;SDS011;1991;48.682;9.030;2022-07-29T03:25:49;4.20;;;3.80;;
3953;SDS011;1991;48.682;9.030;2022-07-29T03:28:14;4.22;;;3.50;;
3953;SDS011;1991;48.682;9.030;2022-07-29T03:30:40;4.55;;;3.60;;
3953;SDS011;1991;48.682;9.030;2022-07-29T03:33:06;6.13;;;3.60;;
3953;SDS011;1991;48.682;9.030;2022-07-29T03:35:31;3.85;;;3.55;;
3953;SDS011;1991;48.682;9.030;2022-07-29T03:37:57;3.75;;;3.42;;
3953;SDS011;1991;48.682;9.030;2022-07-29T03:40:33;3.78;;;3.47;;
3953;SDS011;1991;48.682;9.030;2022-07-29T03:43:03;3.97;;;3.55;;
3953;SDS011;1991;48.682;9.030;2022-07-29T03:45:30;4.28;;;3.50;;
3953;SDS011;1991;48.682;9.030;2022-07-29T03:47:59;4.22;;;3.20;;
3953;SDS011;1991;48.682;9.030;2022-07-29T03:50:27;3.47;;;3.17;;
3953;SDS011;1991;48.682;9.030;2022-07-29T03:52:55;4.22;;;3.15;;
3953;SDS011;1991;48.682;9.030;2022-07-29T03:55:20;3.22;;;2.90;;
3953;SDS011;1991;48.682;9.030;2022-07-29T03:57:46;2.80;;;2.58;;
3953;SDS011;1991;48.682;9.030;2022-07-29T04:00:14;3.03;;;2.70;;
3953;SDS011;1991;48.682;9.030;2022-07-29T04:02:40;3.50;;;2.90;;
3953;SDS011;1991;48.682;9.030;2022-07-29T04:05:13;2.63;;;2.28;;
3953;SDS011;1991;48.682;9.030;2022-07-29T04:07:40;4.78;;;3.00;;
3953;SDS011;1991;48.682;9.030;2022-07-29T04:10:08;4.13;;;3.15;;
3953;SDS011;1991;48.682;9.030;2022-07-29T04:12:34;2.95;;;2.65;;
3953;SDS011;1991;48.682;9.030;2022-07-29T04:15:00;4.60;;;2.90;;
3953;SDS011;1991;48.682;9.030;2022-07-29T04:17:26;2.65;;;2.45;;
3953;SDS011;1991;48.682;9.030;2022-07-29T04:19:52;2.80;;;2.60;;
3953;SDS011;1991;48.682;9.030;2022-07-29T04:22:17;2.95;;;2.70;;
3953;SDS011;1991;48.682;9.030;2022-07-29T04:24:43;3.53;;;2.58;;
3953;SDS011;1991;48.682;9.030;2022-07-29T04:27:08;3.42;;;2.45;;
3953;SDS011;1991;48.682;9.030;2022-07-29T04:29:34;2.58;;;2.38;;
3953;SDS011;1991;48.682;9.030;2022-07-29T04:32:00;2.47;;;2.28;;
3953;SDS011;1991;48.682;9.030;2022-07-29T04:34:26;3.22;;;2.92;;
3953;SDS011;1991;48.682;9.030;2022-07-29T04:36:51;2.50;;;2.30;;
3953;SDS011;1991;48.682;9.030;2022-07-29T04:39:17;2.55;;;2.13;;
3953;SDS011;1991;48.682;9.030;2022-07-29T04:41:43;2.92;;;2.72;;
3953;SDS011;1991;48.682;9.030;2022-07-29T04:44:09;2.97;;;2.17;;
3953;SDS011;1991;48.682;9.030;2022-07-29T04:46:35;2.47;;;2.30;;
3953;SDS011;1991;48.682;9.030;2022-07-29T04:49:02;2.97;;;2.72;;
3953;SDS011;1991;48.682;9.030;2022-07-29T04:51:28;2.25;;;2.05;;
3953;SDS011;1991;48.682;9.030;2022-07-29T04:53:53;2.53;;;2.33;;
3953;SDS011;1991;48.682;9.030;2022-07-29T04:56:19;3.45;;;2.75;;
3953;SDS011;1991;48.682;9.030;2022-07-29T04:58:45;2.75;;;2.50;;
3953;SDS011;1991;48.682;9.030;2022-07-29T05:01:10;3.40;;;2.15;;
3953;SDS011;1991;48.682;9.030;2022-07-29T05:03:36;3.92;;;2.17;;
3953;SDS011;1991;48.682;9.030;2022-07-29T05:06:02;2.47;;;2.30;;
3953;SDS011;1991;48.682;9.030;2022-07-29T05:08:27;6.93;;;2.50;;
3953;SDS011;1991;48.682;9.030;2022-07-29T05:10:53;2.88;;;2.50;;
3953;SDS011;1991;48.682;9.030;2022-07-29T05:13:19;3.38;;;2.08;;
3953;SDS011;1991;48.682;9.030;2022-07-29T05:15:44;3.70;;;2.78;;
3953;SDS011;1991;48.682;9.030;2022-07-29T05:18:10;2.40;;;2.20;;
3953;SDS011;1991;48.682;9.030;2022-07-29T05:20:36;4.63;;;2.58;;
3953;SDS011;1991;48.682;9.030;2022-07-29T05:23:02;2.65;;;2.45;;
3953;SDS011;1991;48.682;9.030;2022-07-29T05:25:28;3.33;;;2.80;;
3953;SDS011;1991;48.682;9.030;2022-07-29T05:27:54;5.05;;;2.53;;
3953;SDS011;1991;48.682;9.030;2022-07-29T05:30:21;4.70;;;2.72;;
3953;SDS011;1991;48.682;9.030;2022-07-29T05:32:46;3.92;;;2.47;;
3953;SDS011;1991;48.682;9.030;2022-07-29T05:35:12;2.50;;;2.30;;
3953;SDS011;1991;48.682;9.030;2022-07-29T05:37:38;5.43;;;3.05;;
3953;SDS011;1991;48.682;9.030;2022-07-29T05:40:04;4.63;;;2.83;;
3953;SDS011;1991;48.682;9.030;2022-07-29T05:42:31;2.60;;;2.40;;
3953;SDS011;1991;48.682;9.030;2022-07-29T05:44:57;4.95;;;3.15;;
3953;SDS011;1991;48.682;9.030;2022-07-29T05:47:22;4.00;;;3.20;;
3953;SDS011;1991;48.682;9.030;2022-07-29T05:49:48;5.03;;;2.80;;
3953;SDS011;1991;48.682;9.030;2022-07-29T05:52:15;3.28;;;2.97;;
3953;SDS011;1991;48.682;9.030;2022-07-29T05:54:41;3.42;;;3.13;;
3953;SDS011;1991;48.682;9.030;2022-07-29T05:57:06;3.70;;;2.88;;
3953;SDS011;1991;48.682;9.030;2022-07-29T05:59:36;4.15;;;3.25;;
3953;SDS011;1991;48.682;9.030;2022-07-29T06:02:01;3.17;;;2.88;;
3953;SDS011;1991;48.682;9.030;2022-07-29T06:04:27;3.97;;;3.45;;
3953;SDS011;1991;48.682;9.030;2022-07-29T06:06:53;4.40;;;3.10;;
3953;SDS011;1991;48.682;9.030;2022-07-29T06:09:19;3.40;;;3.10;;
3953;SDS011;1991;48.682;9.030;2022-07-29T06:11:44;4.03;;;3.17;;
3953;SDS011;1991;48.682;9.030;2022-07-29T06:14:10;4.65;;;3.60;;
3953;SDS011;1991;48.682;9.030;2022-07-29T06:16:35;6.82;;;3.10;;
3953;SDS011;1991;48.682;9.030;2022-07-29T06:19:01;5.47;;;3.10;;
3953;SDS011;1991;48.682;9.030;2022-07-29T06:21:27;3.70;;;3.28;;
3953;SDS011;1991;48.682;9.030;2022-07-29T06:23:53;4.10;;;3.20;;
3953;SDS011;1991;48.682;9.030;2022-07-29T06:26:18;6.72;;;3.30;;
3953;SDS011;1991;48.682;9.030;2022-07-29T06:28:44;4.90;;;3.30;;
3953;SDS011;1991;48.682;9.030;2022-07-29T06:31:09;4.43;;;3.30;;
3953;SDS011;1991;48.682;9.030;2022-07-29T06:33:35;3.85;;;3.15;;
3953;SDS011;1991;48.682;9.030;2022-07-29T06:36:02;4.90;;;3.38;;
3953;SDS011;1991;48.682;9.030;2022-07-29T06:38:29;5.03;;;3.30;;
3953;SDS011;1991;48.682;9.030;2022-07-29T06:40:55;4.00;;;3.60;;
3953;SDS011;1991;48.682;9.030;2022-07-29T06:43:32;6.00;;;3.45;;
3953;SDS011;1991;48.682;9.030;2022-07-29T06:46:07;3.50;;;3.28;;
3953;SDS011;1991;48.682;9.030;2022-07-29T06:48:34;4.03;;;3.30;;
3953;SDS011;1991;48.682;9.030;2022-07-29T06:51:03;3.88;;;3.58;;
3953;SDS011;1991;48.682;9.030;2022-07-29T06:53:30;4.57;;;3.30;;
3953;SDS011;1991;48.682;9.030;2022-07-29T06:55:57;3.83;;;3.30;;
3953;SDS011;1991;48.682;9.030;2022-07-29T06:58:24;4.18;;;3.78;;
3953;SDS011;1991;48.682;9.030;2022-07-29T07:00:51;3.30;;;3.00;;
3953;SDS011;1991;48.682;9.030;2022-07-29T07:03:17;4.25;;;3.22;;
3953;SDS011;1991;48.682;9.030;2022-07-29T07:05:43;4.38;;;3.60;;
3953;SDS011;1991;48.682;9.030;2022-07-29T07:08:10;4.68;;;3.67;;
3953;SDS011;1991;48.682;9.030;2022-07-29T07:10:36;4.75;;;3.72;;
3953;SDS011;1991;48.682;9.030;2022-07-29T07:13:03;4.05;;;3.50;;
3953;SDS011;1991;48.682;9.030;2022-07-29T07:15:29;4.20;;;3.63;;
3953;SDS011;1991;48.682;9.030;2022-07-29T07:17:55;3.95;;;3.30;;
3953;SDS011;1991;48.682;9.030;2022-07-29T07:20:22;4.03;;;3.67;;
3953;SDS011;1991;48.682;9.030;2022-07-29T07:22:48;4.63;;;3.80;;
3953;SDS011;1991;48.682;9.030;2022-07-29T07:25:14;4.65;;;3.72;;
3953;SDS011;1991;48.682;9.030;2022-07-29T07:27:39;4.38;;;3.50;;
3953;SDS011;1991;48.682;9.030;2022-07-29T07:30:05;5.25;;;3.20;;
3953;SDS011;1991;48.682;9.030;2022-07-29T07:32:32;4.55;;;3.55;;
3953;SDS011;1991;48.682;9.030;2022-07-29T07:34:59;4.40;;;3.72;;
3953;SDS011;1991;48.682;9.030;2022-07-29T07:37:25;7.18;;;3.60;;
3953;SDS011;1991;48.682;9.030;2022-07-29T07:39:53;3.85;;;3.55;;
3953;SDS011;1991;48.682;9.030;2022-07-29T07:42:19;3.92;;;3.58;;
3953;SDS011;1991;48.682;9.030;2022-07-29T07:44:45;4.60;;;3.70;;
3953;SDS011;1991;48.682;9.030;2022-07-29T07:47:11;4.60;;;3.60;;
3953;SDS011;1991;48.682;9.030;2022-07-29T07:49:37;4.03;;;3.63;;
3953;SDS011;1991;48.682;9.030;2022-07-29T07:52:03;7.25;;;4.22;;
3953;SDS011;1991;48.682;9.030;2022-07-29T07:54:29;4.72;;;3.85;;
3953;SDS011;1991;48.682;9.030;2022-07-29T07:56:55;5.95;;;3.80;;
3953;SDS011;1991;48.682;9.030;2022-07-29T07:59:21;4.03;;;3.63;;
3953;SDS011;1991;48.682;9.030;2022-07-29T08:01:47;4.95;;;3.92;;
3953;SDS011;1991;48.682;9.030;2022-07-29T08:04:12;3.92;;;3.45;;
3953;SDS011;1991;48.682;9.030;2022-07-29T08:06:38;5.35;;;3.85;;
3953;SDS011;1991;48.682;9.030;2022-07-29T08:09:04;4.57;;;3.80;;
3953;SDS011;1991;48.682;9.030;2022-07-29T08:11:30;7.55;;;3.55;;
3953;SDS011;1991;48.682;9.030;2022-07-29T08:13:56;4.68;;;3.80;;
3953;SDS011;1991;48.682;9.030;2022-07-29T08:16:21;4.85;;;3.17;;
3953;SDS011;1991;48.682;9.030;2022-07-29T08:18:49;6.70;;;4.00;;
3953;SDS011;1991;48.682;9.030;2022-07-29T08:21:15;6.00;;;3.60;;
3953;SDS011;1991;48.682;9.030;2022-07-29T08:23:41;4.45;;;3.60;;
3953;SDS011;1991;48.682;9.030;2022-07-29T08:26:14;6.35;;;3.70;;
3953;SDS011;1991;48.682;9.030;2022-07-29T08:28:41;4.60;;;3.90;;
3953;SDS011;1991;48.682;9.030;2022-07-29T08:31:14;4.10;;;3.70;;
3953;SDS011;1991;48.682;9.030;2022-07-29T08:33:40;6.70;;;4.45;;
3953;SDS011;1991;48.682;9.030;2022-07-29T08:36:06;5.22;;;3.70;;
3953;SDS011;1991;48.682;9.030;2022-07-29T08:38:32;4.10;;;3.65;;
3953;SDS011;1991;48.682;9.030;2022-07-29T08:40:59;5.25;;;3.28;;
3953;SDS011;1991;48.682;9.030;2022-07-29T08:43:26;4.20;;;3.80;;
3953;SDS011;1991;48.682;9.030;2022-07-29T08:45:52;6.00;;;4.05;;
3953;SDS011;1991;48.682;9.030;2022-07-29T08:48:19;4.75;;;4.25;;
3953;SDS011;1991;48.682;9.030;2022-07-29T08:50:48;4.75;;;3.60;;
3953;SDS011;1991;48.682;9.030;2022-07-29T08:53:18;6.72;;;4.00;;
3953;SDS011;1991;48.682;9.030;2022-07-29T08:55:47;4.95;;;3.95;;
3953;SDS011;1991;48.682;9.030;2022-07-29T08:58:17;7.15;;;3.90;;
3953;SDS011;1991;48.682;9.030;2022-07-29T09:00:45;5.70;;;3.63;;
3953;SDS011;1991;48.682;9.030;2022-07-29T09:03:15;4.63;;;3.63;;
3953;SDS011;1991;48.682;9.030;2022-07-29T09:05:47;5.72;;;3.67;;
3953;SDS011;1991;48.682;9.030;2022-07-29T09:08:14;9.57;;;3.53;;
3953;SDS011;1991;48.682;9.030;2022-07-29T09:10:40;5.47;;;3.95;;
3953;SDS011;1991;48.682;9.030;2022-07-29T09:13:06;6.50;;;3.60;;
3953;SDS011;1991;48.682;9.030;2022-07-29T09:15:32;4.78;;;4.03;;
3953;SDS011;1991;48.682;9.030;2022-07-29T09:17:58;8.05;;;3.35;;
3953;SDS011;1991;48.682;9.030;2022-07-29T09:20:25;5.78;;;3.75;;
3953;SDS011;1991;48.682;9.030;2022-07-29T09:22:51;8.65;;;3.33;;
3953;SDS011;1991;48.682;9.030;2022-07-29T09:30:32;4.68;;;3.58;;
3953;SDS011;1991;48.682;9.030;2022-07-29T09:32:59;6.35;;;3.40;;
3953;SDS011;1991;48.682;9.030;2022-07-29T09:35:26;6.35;;;3.55;;
3953;SDS011;1991;48.682;9.030;2022-07-29T09:37:52;6.40;;;3.20;;
3953;SDS011;1991;48.682;9.030;2022-07-29T09:40:26;7.15;;;3.78;;
3953;SDS011;1991;48.682;9.030;2022-07-29T09:42:53;6.38;;;3.65;;
3953;SDS011;1991;48.682;9.030;2022-07-29T09:47:57;7.93;;;3.60;;
3953;SDS011;1991;48.682;9.030;2022-07-29T09:50:40;6.75;;;3.60;;
3953;SDS011;1991;48.682;9.030;2022-07-29T09:53:07;4.25;;;3.80;;
3953;SDS011;1991;48.682;9.030;2022-07-29T09:55:46;4.88;;;3.90;;
3953;SDS011;1991;48.682;9.030;2022-07-29T09:58:19;5.88;;;3.80;;
3953;SDS011;1991;48.682;9.030;2022-07-29T10:00:46;7.60;;;3.45;;
3953;SDS011;1991;48.682;9.030;2022-07-29T10:03:13;5.40;;;3.55;;
3953;SDS011;1991;48.682;9.030;2022-07-29T10:05:41;6.82;;;3.60;;
3953;SDS011;1991;48.682;9.030;2022-07-29T10:08:07;5.50;;;4.07;;
3953;SDS011;1991;48.682;9.030;2022-07-29T10:10:35;9.40;;;4.15;;
3953;SDS011;1991;48.682;9.030;2022-07-29T10:13:03;4.38;;;3.33;;
3953;SDS011;1991;48.682;9.030;2022-07-29T10:15:32;5.78;;;3.67;;
3953;SDS011;1991;48.682;9.030;2022-07-29T10:18:03;6.03;;;4.07;;
3953;SDS011;1991;48.682;9.030;2022-07-29T10:20:29;7.03;;;3.70;;
3953;SDS011;1991;48.682;9.030;2022-07-29T10:22:55;3.75;;;3.17;;
3953;SDS011;1991;48.682;9.030;2022-07-29T10:25:21;5.38;;;3.70;;
3953;SDS011;1991;48.682;9.030;2022-07-29T10:27:48;5.25;;;3.50;;
3953;SDS011;1991;48.682;9.030;2022-07-29T10:30:16;4.30;;;3.90;;
3953;SDS011;1991;48.682;9.030;2022-07-29T10:38:41;8.30;;;3.42;;
3953;SDS011;1991;48.682;9.030;2022-07-29T10:43:57;7.43;;;3.92;;
3953;SDS011;1991;48.682;9.030;2022-07-29T10:46:34;6.18;;;3.80;;
3953;SDS011;1991;48.682;9.030;2022-07-29T10:49:20;5.95;;;3.30;;
3953;SDS011;1991;48.682;9.030;2022-07-29T10:52:04;8.93;;;4.35;;
3953;SDS011;1991;48.682;9.030;2022-07-29T10:57:41;17.50;;;6.10;;
3953;SDS011;1991;48.682;9.030;2022-07-29T11:07:25;12.75;;;4.88;;
3953;SDS011;1991;48.682;9.030;2022-07-29T11:20:40;6.72;;;3.85;;
3953;SDS011;1991;48.682;9.030;2022-07-29T11:23:18;5.60;;;3.63;;
3953;SDS011;1991;48.682;9.030;2022-07-29T11:39:42;7.57;;;3.80;;
3953;SDS011;1991;48.682;9.030;2022-07-29T11:45:00;8.77;;;4.38;;
3953;SDS011;1991;48.682;9.030;2022-07-29T11:47:30;5.72;;;3.50;;
3953;SDS011;1991;48.682;9.030;2022-07-29T11:49:57;5.28;;;3.97;;
3953;SDS011;1991;48.682;9.030;2022-07-29T11:52:34;5.03;;;4.03;;
3953;SDS011;1991;48.682;9.030;2022-07-29T11:55:15;5.82;;;4.00;;
3953;SDS011;1991;48.682;9.030;2022-07-29T12:00:20;4.00;;;3.50;;
3953;SDS011;1991;48.682;9.030;2022-07-29T12:02:46;4.43;;;3.78;;
3953;SDS011;1991;48.682;9.030;2022-07-29T12:05:12;6.10;;;4.03;;
3953;SDS011;1991;48.682;9.030;2022-07-29T12:07:38;5.22;;;3.47;;
3953;SDS011;1991;48.682;9.030;2022-07-29T12:10:05;4.45;;;3.67;;
3953;SDS011;1991;48.682;9.030;2022-07-29T12:12:31;6.18;;;4.05;;
3953;SDS011;1991;48.682;9.030;2022-07-29T12:14:57;8.95;;;4.72;;
3953;SDS011;1991;48.682;9.030;2022-07-29T12:19:52;5.95;;;4.20;;
3953;SDS011;1991;48.682;9.030;2022-07-29T12:24:54;5.00;;;3.80;;
3953;SDS011;1991;48.682;9.030;2022-07-29T12:27:25;5.43;;;4.22;;
3953;SDS011;1991;48.682;9.030;2022-07-29T12:29:57;9.88;;;3.90;;
3953;SDS011;1991;48.682;9.030;2022-07-29T12:32:35;4.35;;;3.95;;
3953;SDS011;1991;48.682;9.030;2022-07-29T12:35:06;5.22;;;3.53;;
3953;SDS011;1991;48.682;9.030;2022-07-29T12:37:40;7.35;;;4.05;;
3953;SDS011;1991;48.682;9.030;2022-07-29T12:40:07;4.85;;;3.90;;
3953;SDS011;1991;48.682;9.030;2022-07-29T12:42:35;7.10;;;3.90;;
3953;SDS011;1991;48.682;9.030;2022-07-29T12:45:02;4.50;;;3.35;;
3953;SDS011;1991;48.682;9.030;2022-07-29T12:47:29;5.18;;;3.28;;
3953;SDS011;1991;48.682;9.030;2022-07-29T12:50:08;5.20;;;3.70;;
3953;SDS011;1991;48.682;9.030;2022-07-29T12:52:34;5.28;;;3.50;;
3953;SDS011;1991;48.682;9.030;2022-07-29T12:55:00;4.93;;;3.78;;
3953;SDS011;1991;48.682;9.030;2022-07-29T12:57:26;5.38;;;4.10;;
3953;SDS011;1991;48.682;9.030;2022-07-29T13:00:06;7.10;;;4.50;;
3953;SDS011;1991;48.682;9.030;2022-07-29T13:02:35;8.50;;;4.45;;
3953;SDS011;1991;48.682;9.030;2022-07-29T13:05:01;6.68;;;4.47;;
3953;SDS011;1991;48.682;9.030;2022-07-29T13:07:28;8.65;;;4.65;;
3953;SDS011;1991;48.682;9.030;2022-07-29T13:09:58;7.68;;;4.32;;
3953;SDS011;1991;48.682;9.030;2022-07-29T13:12:39;9.15;;;4.90;;
3953;SDS011;1991;48.682;9.030;2022-07-29T13:16:07;9.73;;;5.18;;
3953;SDS011;1991;48.682;9.030;2022-07-29T13:18:33;6.40;;;4.47;;
3953;SDS011;1991;48.682;9.030;2022-07-29T13:21:12;6.50;;;4.32;;
3953;SDS011;1991;48.682;9.030;2022-07-29T13:23:39;6.55;;;4.85;;
3953;SDS011;1991;48.682;9.030;2022-07-29T13:26:06;10.00;;;5.20;;
3953;SDS011;1991;48.682;9.030;2022-07-29T13:28:32;6.70;;;4.93;;
3953;SDS011;1991;48.682;9.030;2022-07-29T13:30:59;9.85;;;5.93;;
3953;SDS011;1991;48.682;9.030;2022-07-29T13:33:25;9.75;;;5.97;;
3953;SDS011;1991;48.682;9.030;2022-07-29T13:35:50;7.68;;;5.55;;
3953;SDS011;1991;48.682;9.030;2022-07-29T13:38:16;9.30;;;5.50;;
3953;SDS011;1991;48.682;9.030;2022-07-29T13:40:42;6.10;;;5.15;;
3953;SDS011;1991;48.682;9.030;2022-07-29T13:43:11;5.88;;;5.15;;
3953;SDS011;1991;48.682;9.030;2022-07-29T13:45:37;5.72;;;4.60;;
3953;SDS011;1991;48.682;9.030;2022-07-29T13:48:03;5.63;;;5.03;;
3953;SDS011;1991;48.682;9.030;2022-07-29T13:50:29;9.93;;;7.50;;
3953;SDS011;1991;48.682;9.030;2022-07-29T13:52:54;8.55;;;6.90;;
3953;SDS011;1991;48.682;9.030;2022-07-29T13:55:20;6.47;;;5.68;;
3953;SDS011;1991;48.682;9.030;2022-07-29T13:57:46;6.70;;;5.47;;
3953;SDS011;1991;48.682;9.030;2022-07-29T14:00:12;6.13;;;4.97;;
3953;SDS011;1991;48.682;9.030;2022-07-29T14:02:38;7.47;;;6.07;;
3953;SDS011;1991;48.682;9.030;2022-07-29T14:05:04;11.30;;;7.80;;
3953;SDS011;1991;48.682;9.030;2022-07-29T14:07:30;7.10;;;5.50;;
3953;SDS011;1991;48.682;9.030;2022-07-29T14:09:56;8.13;;;6.00;;
3953;SDS011;1991;48.682;9.030;2022-07-29T14:12:22;6.10;;;5.50;;
3953;SDS011;1991;48.682;9.030;2022-07-29T14:14:47;6.32;;;5.57;;
3953;SDS011;1991;48.682;9.030;2022-07-29T14:17:13;8.48;;;5.65;;
3953;SDS011;1991;48.682;9.030;2022-07-29T14:19:40;9.13;;;5.43;;
3953;SDS011;1991;48.682;9.030;2022-07-29T14:22:06;5.20;;;4.70;;
3953;SDS011;1991;48.682;9.030;2022-07-29T14:24:33;6.00;;;5.05;;
3953;SDS011;1991;48.682;9.030;2022-07-29T14:26:59;6.03;;;5.05;;
3953;SDS011;1991;48.682;9.030;2022-07-29T14:29:25;7.32;;;5.25;;
3953;SDS011;1991;48.682;9.030;2022-07-29T14:31:50;7.03;;;5.57;;
3953;SDS011;1991;48.682;9.030;2022-07-29T14:34:16;5.40;;;4.90;;
3953;SDS011;1991;48.682;9.030;2022-07-29T14:36:41;5.53;;;4.97;;
3953;SDS011;1991;48.682;9.030;2022-07-29T14:39:07;6.10;;;4.78;;
3953;SDS011;1991;48.682;9.030;2022-07-29T14:41:33;4.95;;;4.43;;
3953;SDS011;1991;48.682;9.030;2022-07-29T14:43:58;7.82;;;5.15;;
3953;SDS011;1991;48.682;9.030;2022-07-29T14:46:27;8.70;;;5.07;;
3953;SDS011;1991;48.682;9.030;2022-07-29T14:48:52;11.63;;;5.07;;
3953;SDS011;1991;48.682;9.030;2022-07-29T14:51:18;6.13;;;5.53;;
3953;SDS011;1991;48.682;9.030;2022-07-29T14:53:44;8.50;;;6.28;;
3953;SDS011;1991;48.682;9.030;2022-07-29T14:56:09;7.03;;;5.90;;
3953;SDS011;1991;48.682;9.030;2022-07-29T14:58:35;7.72;;;5.88;;
3953;SDS011;1991;48.682;9.030;2022-07-29T15:01:01;7.00;;;5.32;;
3953;SDS011;1991;48.682;9.030;2022-07-29T15:03:27;6.30;;;5.72;;
3953;SDS011;1991;48.682;9.030;2022-07-29T15:05:53;6.15;;;5.32;;
3953;SDS011;1991;48.682;9.030;2022-07-29T15:08:19;8.10;;;5.78;;
3953;SDS011;1991;48.682;9.030;2022-07-29T15:10:45;6.10;;;5.50;;
3953;SDS011;1991;48.682;9.030;2022-07-29T15:13:11;6.60;;;4.80;;
3953;SDS011;1991;48.682;9.030;2022-07-29T15:15:36;7.70;;;4.90;;
3953;SDS011;1991;48.682;9.030;2022-07-29T15:18:02;6.07;;;4.95;;
3953;SDS011;1991;48.682;9.030;2022-07-29T15:20:28;7.30;;;5.22;;
3953;SDS011;1991;48.682;9.030;2022-07-29T15:22:54;7.32;;;5.43;;
3953;SDS011;1991;48.682;9.030;2022-07-29T15:25:21;6.47;;;5.40;;
3953;SDS011;1991;48.682;9.030;2022-07-29T15:27:50;7.85;;;5.13;;
3953;SDS011;1991;48.682;9.030;2022-07-29T15:30:16;8.88;;;5.05;;
3953;SDS011;1991;48.682;9.030;2022-07-29T15:32:45;7.82;;;5.95;;
3953;SDS011;1991;48.682;9.030;2022-07-29T15:35:12;5.93;;;5.13;;
3953;SDS011;1991;48.682;9.030;2022-07-29T15:37:38;9.75;;;6.13;;
3953;SDS011;1991;48.682;9.030;2022-07-29T15:40:04;6.75;;;5.47;;
3953;SDS011;1991;48.682;9.030;2022-07-29T15:42:31;5.80;;;5.15;;
3953;SDS011;1991;48.682;9.030;2022-07-29T15:44:56;6.68;;;5.78;;
3953;SDS011;1991;48.682;9.030;2022-07-29T15:47:22;6.30;;;5.75;;
3953;SDS011;1991;48.682;9.030;2022-07-29T15:49:48;7.72;;;5.35;;
3953;SDS011;1991;48.682;9.030;2022-07-29T15:52:14;5.80;;;4.95;;
3953;SDS011;1991;48.682;9.030;2022-07-29T15:54:42;5.30;;;4.80;;
3953;SDS011;1991;48.682;9.030;2022-07-29T15:57:07;6.60;;;5.13;;
3953;SDS011;1991;48.682;9.030;2022-07-29T15:59:33;6.15;;;5.50;;
3953;SDS011;1991;48.682;9.030;2022-07-29T16:01:59;8.70;;;5.53;;
3953;SDS011;1991;48.682;9.030;2022-07-29T16:04:25;5.72;;;4.80;;
3953;SDS011;1991;48.682;9.030;2022-07-29T16:06:51;5.32;;;4.82;;
3953;SDS011;1991;48.682;9.030;2022-07-29T16:09:17;5.05;;;4.50;;
3953;SDS011;1991;48.682;9.030;2022-07-29T16:11:43;7.25;;;5.00;;
3953;SDS011;1991;48.682;9.030;2022-07-29T16:14:15;5.38;;;4.88;;
3953;SDS011;1991;48.682;9.030;2022-07-29T16:16:41;5.65;;;5.15;;
3953;SDS011;1991;48.682;9.030;2022-07-29T16:19:07;5.97;;;4.75;;
3953;SDS011;1991;48.682;9.030;2022-07-29T16:21:33;5.65;;;4.68;;
3953;SDS011;1991;48.682;9.030;2022-07-29T16:23:59;5.00;;;4.55;;
3953;SDS011;1991;48.682;9.030;2022-07-29T16:26:26;6.75;;;4.72;;
3953;SDS011;1991;48.682;9.030;2022-07-29T16:28:52;5.50;;;4.45;;